sensor_id;sensor_type;location;lat;lon;timestamp;temperature;humidity
44433;DHT22;30136;50.600;4.608;2022-07-11T00:00:23;28.10;61.90
44433;DHT22;30136;50.600;4.608;2022-07-11T00:01:25;28.20;61.90
44433;DHT22;30136;50.600;4.608;2022-07-11T00:02:25;27.60;61.40
44433;DHT22;30136;50.600;4.608;2022-07-11T00:03:26;27.90;61.70
44433;DHT22;30136;50.600;4.608;2022-07-11T00:04:29;28.20;62.00
44433;DHT22;30136;50.600;4.608;2022-07-11T00:05:30;27.50;61.30
44433;DHT22;30136;50.600;4.608;2022-07-11T00:06:31;27.40;61.30
44433;DHT22;30136;50.600;4.608;2022-07-11T00:07:32;27.60;61.60
44433;DHT22;30136;50.600;4.608;2022-07-11T00:08:33;27.40;61.30
44433;DHT22;30136;50.600;4.608;2022-07-11T00:09:34;28.10;62.10
44433;DHT22;30136;50.600;4.608;2022-07-11T00:10:35;27.90;61.70
44433;DHT22;30136;50.600;4.608;2022-07-11T00:11:36;27.50;61.40
44433;DHT22;30136;50.600;4.608;2022-07-11T00:12:37;27.30;61.30
44433;DHT22;30136;50.600;4.608;2022-07-11T00:13:38;28.00;61.90
44433;DHT22;30136;50.600;4.608;2022-07-11T00:14:39;28.00;61.90
44433;DHT22;30136;50.600;4.608;2022-07-11T00:15:40;27.30;61.20
44433;DHT22;30136;50.600;4.608;2022-07-11T00:16:41;28.00;61.80
44433;DHT22;30136;50.600;4.608;2022-07-11T00:17:42;28.00;61.80
44433;DHT22;30136;50.600;4.608;2022-07-11T00:18:43;27.90;61.50
44433;DHT22;30136;50.600;4.608;2022-07-11T00:19:45;27.80;61.50
44433;DHT22;30136;50.600;4.608;2022-07-11T00:20:46;27.90;61.50
44433;DHT22;30136;50.600;4.608;2022-07-11T00:21:48;27.50;61.30
44433;DHT22;30136;50.600;4.608;2022-07-11T00:22:49;27.30;61.10
44433;DHT22;30136;50.600;4.608;2022-07-11T00:23:50;27.50;61.20
44433;DHT22;30136;50.600;4.608;2022-07-11T00:24:51;27.60;61.20
44433;DHT22;30136;50.600;4.608;2022-07-11T00:25:52;27.90;61.20
44433;DHT22;30136;50.600;4.608;2022-07-11T00:26:52;28.10;61.30
44433;DHT22;30136;50.600;4.608;2022-07-11T00:27:53;27.90;60.90
44433;DHT22;30136;50.600;4.608;2022-07-11T00:28:55;27.90;61.50
44433;DHT22;30136;50.600;4.608;2022-07-11T00:29:56;27.20;60.30
44433;DHT22;30136;50.600;4.608;2022-07-11T00:30:56;27.90;60.90
44433;DHT22;30136;50.600;4.608;2022-07-11T00:31:58;27.90;60.70
44433;DHT22;30136;50.600;4.608;2022-07-11T00:32:59;28.00;60.70
44433;DHT22;30136;50.600;4.608;2022-07-11T00:34:00;28.00;60.90
44433;DHT22;30136;50.600;4.608;2022-07-11T00:35:01;27.90;60.50
44433;DHT22;30136;50.600;4.608;2022-07-11T00:36:02;27.30;60.10
44433;DHT22;30136;50.600;4.608;2022-07-11T00:37:03;27.80;60.60
44433;DHT22;30136;50.600;4.608;2022-07-11T00:38:04;27.50;60.30
44433;DHT22;30136;50.600;4.608;2022-07-11T00:39:05;27.50;60.30
44433;DHT22;30136;50.600;4.608;2022-07-11T00:40:06;27.50;60.30
44433;DHT22;30136;50.600;4.608;2022-07-11T00:41:07;27.70;60.40
44433;DHT22;30136;50.600;4.608;2022-07-11T00:42:08;28.00;60.60
44433;DHT22;30136;50.600;4.608;2022-07-11T00:43:09;28.00;60.60
44433;DHT22;30136;50.600;4.608;2022-07-11T00:44:11;27.60;60.40
44433;DHT22;30136;50.600;4.608;2022-07-11T00:45:12;28.00;60.20
44433;DHT22;30136;50.600;4.608;2022-07-11T00:46:13;27.90;60.80
44433;DHT22;30136;50.600;4.608;2022-07-11T00:47:14;27.40;60.30
44433;DHT22;30136;50.600;4.608;2022-07-11T00:48:15;27.80;60.50
44433;DHT22;30136;50.600;4.608;2022-07-11T00:49:16;27.90;60.60
44433;DHT22;30136;50.600;4.608;2022-07-11T00:50:17;27.60;60.30
44433;DHT22;30136;50.600;4.608;2022-07-11T00:51:19;27.80;60.60
44433;DHT22;30136;50.600;4.608;2022-07-11T00:52:21;28.40;60.80
44433;DHT22;30136;50.600;4.608;2022-07-11T00:53:23;27.50;60.00
44433;DHT22;30136;50.600;4.608;2022-07-11T00:54:25;27.20;59.70
44433;DHT22;30136;50.600;4.608;2022-07-11T00:55:27;27.50;59.90
44433;DHT22;30136;50.600;4.608;2022-07-11T00:56:30;27.40;59.70
44433;DHT22;30136;50.600;4.608;2022-07-11T00:57:32;27.90;60.00
44433;DHT22;30136;50.600;4.608;2022-07-11T00:58:34;27.90;60.20
44433;DHT22;30136;50.600;4.608;2022-07-11T00:59:36;27.50;60.00
44433;DHT22;30136;50.600;4.608;2022-07-11T01:00:36;28.10;60.40
44433;DHT22;30136;50.600;4.608;2022-07-11T01:01:38;27.90;60.40
44433;DHT22;30136;50.600;4.608;2022-07-11T01:02:39;27.40;59.90
44433;DHT22;30136;50.600;4.608;2022-07-11T01:03:40;27.90;60.30
44433;DHT22;30136;50.600;4.608;2022-07-11T01:04:41;27.30;60.00
44433;DHT22;30136;50.600;4.608;2022-07-11T01:05:42;27.40;59.90
44433;DHT22;30136;50.600;4.608;2022-07-11T01:06:43;27.60;59.90
44433;DHT22;30136;50.600;4.608;2022-07-11T01:07:44;28.10;60.50
44433;DHT22;30136;50.600;4.608;2022-07-11T01:08:45;27.40;59.90
44433;DHT22;30136;50.600;4.608;2022-07-11T01:09:46;28.30;60.60
44433;DHT22;30136;50.600;4.608;2022-07-11T01:10:47;28.10;60.50
44433;DHT22;30136;50.600;4.608;2022-07-11T01:11:48;27.40;59.50
44433;DHT22;30136;50.600;4.608;2022-07-11T01:12:50;27.90;60.30
44433;DHT22;30136;50.600;4.608;2022-07-11T01:13:51;28.00;60.60
44433;DHT22;30136;50.600;4.608;2022-07-11T01:14:53;27.50;60.10
44433;DHT22;30136;50.600;4.608;2022-07-11T01:16:15;27.20;59.80
44433;DHT22;30136;50.600;4.608;2022-07-11T01:17:17;27.20;59.80
44433;DHT22;30136;50.600;4.608;2022-07-11T01:18:18;28.30;60.60
44433;DHT22;30136;50.600;4.608;2022-07-11T01:19:19;27.80;60.30
44433;DHT22;30136;50.600;4.608;2022-07-11T01:20:21;27.50;59.90
44433;DHT22;30136;50.600;4.608;2022-07-11T01:21:31;28.40;60.50
44433;DHT22;30136;50.600;4.608;2022-07-11T01:22:44;27.30;59.60
44433;DHT22;30136;50.600;4.608;2022-07-11T01:23:52;28.20;60.30
44433;DHT22;30136;50.600;4.608;2022-07-11T01:24:55;28.00;60.10
44433;DHT22;30136;50.600;4.608;2022-07-11T01:25:55;27.50;59.90
44433;DHT22;30136;50.600;4.608;2022-07-11T01:26:58;27.50;59.80
44433;DHT22;30136;50.600;4.608;2022-07-11T01:28:03;28.30;60.30
44433;DHT22;30136;50.600;4.608;2022-07-11T01:29:10;27.40;59.80
44433;DHT22;30136;50.600;4.608;2022-07-11T01:30:12;28.00;60.30
44433;DHT22;30136;50.600;4.608;2022-07-11T01:31:12;27.20;59.80
44433;DHT22;30136;50.600;4.608;2022-07-11T01:32:13;27.90;60.20
44433;DHT22;30136;50.600;4.608;2022-07-11T01:33:14;27.30;59.70
44433;DHT22;30136;50.600;4.608;2022-07-11T01:34:15;28.00;60.30
44433;DHT22;30136;50.600;4.608;2022-07-11T01:35:16;27.80;60.00
44433;DHT22;30136;50.600;4.608;2022-07-11T01:36:17;27.90;60.20
44433;DHT22;30136;50.600;4.608;2022-07-11T01:37:18;27.90;60.10
44433;DHT22;30136;50.600;4.608;2022-07-11T01:38:18;27.50;59.90
44433;DHT22;30136;50.600;4.608;2022-07-11T01:39:19;27.50;59.90
44433;DHT22;30136;50.600;4.608;2022-07-11T01:40:20;27.20;59.70
44433;DHT22;30136;50.600;4.608;2022-07-11T01:41:21;28.20;60.40
44433;DHT22;30136;50.600;4.608;2022-07-11T01:42:22;27.40;59.80
44433;DHT22;30136;50.600;4.608;2022-07-11T01:43:23;27.20;59.70
44433;DHT22;30136;50.600;4.608;2022-07-11T01:44:25;27.50;59.80
44433;DHT22;30136;50.600;4.608;2022-07-11T01:45:26;27.60;60.00
44433;DHT22;30136;50.600;4.608;2022-07-11T01:46:27;27.50;59.80
44433;DHT22;30136;50.600;4.608;2022-07-11T01:47:28;27.60;60.00
44433;DHT22;30136;50.600;4.608;2022-07-11T01:48:29;27.20;59.80
44433;DHT22;30136;50.600;4.608;2022-07-11T01:49:30;27.80;60.20
44433;DHT22;30136;50.600;4.608;2022-07-11T01:50:31;27.80;60.20
44433;DHT22;30136;50.600;4.608;2022-07-11T01:51:34;27.80;60.10
44433;DHT22;30136;50.600;4.608;2022-07-11T01:52:35;27.60;60.00
44433;DHT22;30136;50.600;4.608;2022-07-11T01:53:36;27.90;60.20
44433;DHT22;30136;50.600;4.608;2022-07-11T01:54:37;27.20;59.80
44433;DHT22;30136;50.600;4.608;2022-07-11T01:55:38;27.80;60.20
44433;DHT22;30136;50.600;4.608;2022-07-11T01:56:39;27.20;59.80
44433;DHT22;30136;50.600;4.608;2022-07-11T01:57:39;27.30;59.90
44433;DHT22;30136;50.600;4.608;2022-07-11T01:58:40;27.30;59.90
44433;DHT22;30136;50.600;4.608;2022-07-11T01:59:41;27.40;60.00
44433;DHT22;30136;50.600;4.608;2022-07-11T02:00:42;28.10;60.60
44433;DHT22;30136;50.600;4.608;2022-07-11T02:01:43;27.70;60.20
44433;DHT22;30136;50.600;4.608;2022-07-11T02:02:44;27.70;60.10
44433;DHT22;30136;50.600;4.608;2022-07-11T02:03:45;27.70;60.00
44433;DHT22;30136;50.600;4.608;2022-07-11T02:04:46;28.00;60.30
44433;DHT22;30136;50.600;4.608;2022-07-11T02:05:47;27.30;59.80
44433;DHT22;30136;50.600;4.608;2022-07-11T02:06:48;27.70;60.00
44433;DHT22;30136;50.600;4.608;2022-07-11T02:07:49;28.30;60.50
44433;DHT22;30136;50.600;4.608;2022-07-11T02:09:08;27.90;60.00
44433;DHT22;30136;50.600;4.608;2022-07-11T02:10:09;27.80;60.00
44433;DHT22;30136;50.600;4.608;2022-07-11T02:11:10;27.30;59.70
44433;DHT22;30136;50.600;4.608;2022-07-11T02:12:11;27.70;60.00
44433;DHT22;30136;50.600;4.608;2022-07-11T02:13:19;27.40;59.70
44433;DHT22;30136;50.600;4.608;2022-07-11T02:14:21;27.30;59.50
44433;DHT22;30136;50.600;4.608;2022-07-11T02:15:22;27.60;59.80
44433;DHT22;30136;50.600;4.608;2022-07-11T02:16:23;27.60;59.90
44433;DHT22;30136;50.600;4.608;2022-07-11T02:17:24;28.00;60.30
44433;DHT22;30136;50.600;4.608;2022-07-11T02:18:25;27.90;60.30
44433;DHT22;30136;50.600;4.608;2022-07-11T02:19:25;28.00;60.50
44433;DHT22;30136;50.600;4.608;2022-07-11T02:20:27;27.80;60.30
44433;DHT22;30136;50.600;4.608;2022-07-11T02:21:27;27.40;60.00
44433;DHT22;30136;50.600;4.608;2022-07-11T02:22:28;28.30;60.60
44433;DHT22;30136;50.600;4.608;2022-07-11T02:23:30;27.80;60.10
44433;DHT22;30136;50.600;4.608;2022-07-11T02:24:31;27.30;59.70
44433;DHT22;30136;50.600;4.608;2022-07-11T02:25:32;27.20;59.60
44433;DHT22;30136;50.600;4.608;2022-07-11T02:26:32;27.90;59.90
44433;DHT22;30136;50.600;4.608;2022-07-11T02:27:33;27.40;59.50
44433;DHT22;30136;50.600;4.608;2022-07-11T02:28:34;27.40;59.60
44433;DHT22;30136;50.600;4.608;2022-07-11T02:29:37;27.40;59.50
44433;DHT22;30136;50.600;4.608;2022-07-11T02:30:39;27.70;59.70
44433;DHT22;30136;50.600;4.608;2022-07-11T02:31:41;27.50;59.40
44433;DHT22;30136;50.600;4.608;2022-07-11T02:32:42;27.40;59.60
44433;DHT22;30136;50.600;4.608;2022-07-11T02:33:43;27.50;59.60
44433;DHT22;30136;50.600;4.608;2022-07-11T02:34:44;27.40;59.50
44433;DHT22;30136;50.600;4.608;2022-07-11T02:35:45;27.30;59.50
44433;DHT22;30136;50.600;4.608;2022-07-11T02:36:49;27.30;59.60
44433;DHT22;30136;50.600;4.608;2022-07-11T02:37:50;27.80;60.00
44433;DHT22;30136;50.600;4.608;2022-07-11T02:38:51;27.20;59.60
44433;DHT22;30136;50.600;4.608;2022-07-11T02:39:51;27.70;60.00
44433;DHT22;30136;50.600;4.608;2022-07-11T02:40:52;27.30;59.60
44433;DHT22;30136;50.600;4.608;2022-07-11T02:41:54;27.10;59.40
44433;DHT22;30136;50.600;4.608;2022-07-11T02:42:55;28.20;60.00
44433;DHT22;30136;50.600;4.608;2022-07-11T02:43:56;27.30;59.30
44433;DHT22;30136;50.600;4.608;2022-07-11T02:44:57;27.20;59.30
44433;DHT22;30136;50.600;4.608;2022-07-11T02:45:58;28.20;60.00
44433;DHT22;30136;50.600;4.608;2022-07-11T02:46:59;27.10;59.30
44433;DHT22;30136;50.600;4.608;2022-07-11T02:48:00;27.70;59.60
44433;DHT22;30136;50.600;4.608;2022-07-11T02:49:00;27.80;59.80
44433;DHT22;30136;50.600;4.608;2022-07-11T02:50:02;28.20;60.00
44433;DHT22;30136;50.600;4.608;2022-07-11T02:51:03;28.00;59.90
44433;DHT22;30136;50.600;4.608;2022-07-11T02:52:04;27.30;59.50
44433;DHT22;30136;50.600;4.608;2022-07-11T02:53:06;28.20;60.10
44433;DHT22;30136;50.600;4.608;2022-07-11T02:54:06;28.00;59.90
44433;DHT22;30136;50.600;4.608;2022-07-11T02:55:08;27.40;59.50
44433;DHT22;30136;50.600;4.608;2022-07-11T02:56:10;28.20;59.80
44433;DHT22;30136;50.600;4.608;2022-07-11T02:57:13;27.60;59.50
44433;DHT22;30136;50.600;4.608;2022-07-11T02:58:14;27.80;59.80
44433;DHT22;30136;50.600;4.608;2022-07-11T02:59:15;27.80;59.70
44433;DHT22;30136;50.600;4.608;2022-07-11T03:00:17;27.20;59.30
44433;DHT22;30136;50.600;4.608;2022-07-11T03:01:18;27.00;59.20
44433;DHT22;30136;50.600;4.608;2022-07-11T03:02:20;27.10;59.10
44433;DHT22;30136;50.600;4.608;2022-07-11T03:03:20;28.00;60.00
44433;DHT22;30136;50.600;4.608;2022-07-11T03:04:21;27.10;59.10
44433;DHT22;30136;50.600;4.608;2022-07-11T03:05:22;27.30;59.20
44433;DHT22;30136;50.600;4.608;2022-07-11T03:06:23;27.70;59.50
44433;DHT22;30136;50.600;4.608;2022-07-11T03:07:28;28.20;59.80
44433;DHT22;30136;50.600;4.608;2022-07-11T03:08:28;27.90;59.60
44433;DHT22;30136;50.600;4.608;2022-07-11T03:09:29;27.10;59.10
44433;DHT22;30136;50.600;4.608;2022-07-11T03:10:30;27.60;59.40
44433;DHT22;30136;50.600;4.608;2022-07-11T03:11:31;27.40;59.30
44433;DHT22;30136;50.600;4.608;2022-07-11T03:12:32;27.20;59.20
44433;DHT22;30136;50.600;4.608;2022-07-11T03:13:33;27.00;59.10
44433;DHT22;30136;50.600;4.608;2022-07-11T03:14:35;27.30;59.40
44433;DHT22;30136;50.600;4.608;2022-07-11T03:15:36;27.70;59.60
44433;DHT22;30136;50.600;4.608;2022-07-11T03:16:37;28.20;60.00
44433;DHT22;30136;50.600;4.608;2022-07-11T03:17:38;27.80;59.70
44433;DHT22;30136;50.600;4.608;2022-07-11T03:18:39;27.20;59.40
44433;DHT22;30136;50.600;4.608;2022-07-11T03:19:40;28.00;59.80
44433;DHT22;30136;50.600;4.608;2022-07-11T03:20:40;27.60;59.50
44433;DHT22;30136;50.600;4.608;2022-07-11T03:21:41;27.70;59.50
44433;DHT22;30136;50.600;4.608;2022-07-11T03:22:42;27.00;59.10
44433;DHT22;30136;50.600;4.608;2022-07-11T03:23:43;27.20;59.20
44433;DHT22;30136;50.600;4.608;2022-07-11T03:24:44;27.40;59.30
44433;DHT22;30136;50.600;4.608;2022-07-11T03:25:45;27.20;59.10
44433;DHT22;30136;50.600;4.608;2022-07-11T03:26:46;27.30;59.30
44433;DHT22;30136;50.600;4.608;2022-07-11T03:27:46;27.60;59.50
44433;DHT22;30136;50.600;4.608;2022-07-11T03:28:47;27.20;59.20
44433;DHT22;30136;50.600;4.608;2022-07-11T03:29:48;27.30;59.20
44433;DHT22;30136;50.600;4.608;2022-07-11T03:30:49;27.20;59.20
44433;DHT22;30136;50.600;4.608;2022-07-11T03:31:50;27.10;59.10
44433;DHT22;30136;50.600;4.608;2022-07-11T03:32:51;27.10;59.10
44433;DHT22;30136;50.600;4.608;2022-07-11T03:33:51;27.70;59.40
44433;DHT22;30136;50.600;4.608;2022-07-11T03:34:52;27.10;59.10
44433;DHT22;30136;50.600;4.608;2022-07-11T03:36:12;27.80;59.40
44433;DHT22;30136;50.600;4.608;2022-07-11T03:37:12;27.20;59.00
44433;DHT22;30136;50.600;4.608;2022-07-11T03:38:18;27.30;59.00
44433;DHT22;30136;50.600;4.608;2022-07-11T03:39:20;27.30;58.90
44433;DHT22;30136;50.600;4.608;2022-07-11T03:40:24;27.20;58.90
44433;DHT22;30136;50.600;4.608;2022-07-11T03:41:25;27.00;58.70
44433;DHT22;30136;50.600;4.608;2022-07-11T03:42:27;27.80;59.30
44433;DHT22;30136;50.600;4.608;2022-07-11T03:43:28;27.30;59.00
44433;DHT22;30136;50.600;4.608;2022-07-11T03:44:29;27.30;58.40
44433;DHT22;30136;50.600;4.608;2022-07-11T03:45:29;27.10;58.30
44433;DHT22;30136;50.600;4.608;2022-07-11T03:46:30;27.00;58.30
44433;DHT22;30136;50.600;4.608;2022-07-11T03:47:31;27.10;58.30
44433;DHT22;30136;50.600;4.608;2022-07-11T03:48:32;27.50;58.40
44433;DHT22;30136;50.600;4.608;2022-07-11T03:49:33;27.40;58.50
44433;DHT22;30136;50.600;4.608;2022-07-11T03:50:35;27.30;58.50
44433;DHT22;30136;50.600;4.608;2022-07-11T03:51:36;27.70;58.80
44433;DHT22;30136;50.600;4.608;2022-07-11T03:52:36;27.40;58.60
44433;DHT22;30136;50.600;4.608;2022-07-11T03:53:37;26.90;58.20
44433;DHT22;30136;50.600;4.608;2022-07-11T03:54:38;27.80;58.80
44433;DHT22;30136;50.600;4.608;2022-07-11T03:55:39;27.60;58.80
44433;DHT22;30136;50.600;4.608;2022-07-11T03:56:40;27.10;59.40
44433;DHT22;30136;50.600;4.608;2022-07-11T03:57:41;27.40;59.00
44433;DHT22;30136;50.600;4.608;2022-07-11T03:58:43;28.10;59.60
44433;DHT22;30136;50.600;4.608;2022-07-11T03:59:43;27.10;59.00
44433;DHT22;30136;50.600;4.608;2022-07-11T04:00:44;27.50;59.30
44433;DHT22;30136;50.600;4.608;2022-07-11T04:01:45;27.30;59.10
44433;DHT22;30136;50.600;4.608;2022-07-11T04:02:47;27.60;59.20
44433;DHT22;30136;50.600;4.608;2022-07-11T04:03:48;28.00;59.50
44433;DHT22;30136;50.600;4.608;2022-07-11T04:04:49;27.00;58.90
44433;DHT22;30136;50.600;4.608;2022-07-11T04:05:50;27.70;59.30
44433;DHT22;30136;50.600;4.608;2022-07-11T04:06:51;27.20;59.10
44433;DHT22;30136;50.600;4.608;2022-07-11T04:07:52;27.50;59.20
44433;DHT22;30136;50.600;4.608;2022-07-11T04:08:53;26.90;58.90
44433;DHT22;30136;50.600;4.608;2022-07-11T04:09:54;27.60;59.30
44433;DHT22;30136;50.600;4.608;2022-07-11T04:10:56;27.60;59.30
44433;DHT22;30136;50.600;4.608;2022-07-11T04:11:57;27.60;59.30
44433;DHT22;30136;50.600;4.608;2022-07-11T04:12:57;28.10;59.60
44433;DHT22;30136;50.600;4.608;2022-07-11T04:13:58;27.20;59.10
44433;DHT22;30136;50.600;4.608;2022-07-11T04:14:59;28.00;59.70
44433;DHT22;30136;50.600;4.608;2022-07-11T04:16:00;27.60;59.40
44433;DHT22;30136;50.600;4.608;2022-07-11T04:17:01;27.20;59.10
44433;DHT22;30136;50.600;4.608;2022-07-11T04:18:02;27.90;59.60
44433;DHT22;30136;50.600;4.608;2022-07-11T04:19:03;27.50;59.30
44433;DHT22;30136;50.600;4.608;2022-07-11T04:20:05;27.00;58.90
44433;DHT22;30136;50.600;4.608;2022-07-11T04:21:07;26.90;58.80
44433;DHT22;30136;50.600;4.608;2022-07-11T04:22:08;26.80;58.90
44433;DHT22;30136;50.600;4.608;2022-07-11T04:23:09;27.00;58.90
44433;DHT22;30136;50.600;4.608;2022-07-11T04:24:10;27.20;59.20
44433;DHT22;30136;50.600;4.608;2022-07-11T04:25:10;26.90;59.00
44433;DHT22;30136;50.600;4.608;2022-07-11T04:26:11;27.30;59.20
44433;DHT22;30136;50.600;4.608;2022-07-11T04:27:12;27.20;59.20
44433;DHT22;30136;50.600;4.608;2022-07-11T04:28:13;27.70;60.00
44433;DHT22;30136;50.600;4.608;2022-07-11T04:29:14;27.60;59.40
44433;DHT22;30136;50.600;4.608;2022-07-11T04:30:14;27.50;59.40
44433;DHT22;30136;50.600;4.608;2022-07-11T04:31:15;27.00;59.00
44433;DHT22;30136;50.600;4.608;2022-07-11T04:32:16;26.90;59.10
44433;DHT22;30136;50.600;4.608;2022-07-11T04:33:17;27.10;59.10
44433;DHT22;30136;50.600;4.608;2022-07-11T04:34:18;26.90;58.90
44433;DHT22;30136;50.600;4.608;2022-07-11T04:35:19;27.10;59.00
44433;DHT22;30136;50.600;4.608;2022-07-11T04:36:20;28.00;59.70
44433;DHT22;30136;50.600;4.608;2022-07-11T04:37:21;27.10;59.00
44433;DHT22;30136;50.600;4.608;2022-07-11T04:38:22;27.60;59.30
44433;DHT22;30136;50.600;4.608;2022-07-11T04:39:24;27.50;59.10
44433;DHT22;30136;50.600;4.608;2022-07-11T04:40:25;27.10;58.90
44433;DHT22;30136;50.600;4.608;2022-07-11T04:41:25;27.60;59.30
44433;DHT22;30136;50.600;4.608;2022-07-11T04:42:26;27.00;59.00
44433;DHT22;30136;50.600;4.608;2022-07-11T04:43:27;27.00;59.10
44433;DHT22;30136;50.600;4.608;2022-07-11T04:44:28;27.60;59.40
44433;DHT22;30136;50.600;4.608;2022-07-11T04:45:29;26.90;58.90
44433;DHT22;30136;50.600;4.608;2022-07-11T04:46:30;27.40;59.20
44433;DHT22;30136;50.600;4.608;2022-07-11T04:47:32;27.80;59.50
44433;DHT22;30136;50.600;4.608;2022-07-11T04:48:33;27.40;59.20
44433;DHT22;30136;50.600;4.608;2022-07-11T04:49:34;28.00;59.70
44433;DHT22;30136;50.600;4.608;2022-07-11T04:50:36;26.90;58.90
44433;DHT22;30136;50.600;4.608;2022-07-11T04:51:37;27.50;59.40
44433;DHT22;30136;50.600;4.608;2022-07-11T04:52:37;27.60;59.50
44433;DHT22;30136;50.600;4.608;2022-07-11T04:53:38;28.00;59.70
44433;DHT22;30136;50.600;4.608;2022-07-11T04:54:39;27.10;59.20
44433;DHT22;30136;50.600;4.608;2022-07-11T04:55:40;26.90;59.10
44433;DHT22;30136;50.600;4.608;2022-07-11T04:56:42;27.50;59.40
44433;DHT22;30136;50.600;4.608;2022-07-11T04:57:43;28.00;59.70
44433;DHT22;30136;50.600;4.608;2022-07-11T04:58:43;27.60;59.60
44433;DHT22;30136;50.600;4.608;2022-07-11T04:59:44;27.20;59.30
44433;DHT22;30136;50.600;4.608;2022-07-11T05:00:45;27.60;59.60
44433;DHT22;30136;50.600;4.608;2022-07-11T05:01:46;27.70;59.70
44433;DHT22;30136;50.600;4.608;2022-07-11T05:02:47;27.90;59.80
44433;DHT22;30136;50.600;4.608;2022-07-11T05:03:48;27.10;59.30
44433;DHT22;30136;50.600;4.608;2022-07-11T05:04:49;26.80;59.10
44433;DHT22;30136;50.600;4.608;2022-07-11T05:05:49;26.90;59.30
44433;DHT22;30136;50.600;4.608;2022-07-11T05:06:50;27.40;59.50
44433;DHT22;30136;50.600;4.608;2022-07-11T05:07:51;27.00;59.30
44433;DHT22;30136;50.600;4.608;2022-07-11T05:08:52;27.20;59.40
44433;DHT22;30136;50.600;4.608;2022-07-11T05:09:54;27.50;59.70
44433;DHT22;30136;50.600;4.608;2022-07-11T05:10:56;27.80;59.90
44433;DHT22;30136;50.600;4.608;2022-07-11T05:11:57;27.50;59.70
44433;DHT22;30136;50.600;4.608;2022-07-11T05:12:58;27.10;59.60
44433;DHT22;30136;50.600;4.608;2022-07-11T05:13:59;27.50;59.80
44433;DHT22;30136;50.600;4.608;2022-07-11T05:14:59;27.60;60.00
44433;DHT22;30136;50.600;4.608;2022-07-11T05:16:00;28.00;60.60
44433;DHT22;30136;50.600;4.608;2022-07-11T05:17:01;27.30;59.70
44433;DHT22;30136;50.600;4.608;2022-07-11T05:18:02;27.10;59.70
44433;DHT22;30136;50.600;4.608;2022-07-11T05:19:03;27.10;59.60
44433;DHT22;30136;50.600;4.608;2022-07-11T05:20:04;27.30;59.80
44433;DHT22;30136;50.600;4.608;2022-07-11T05:21:06;27.50;60.00
44433;DHT22;30136;50.600;4.608;2022-07-11T05:22:06;27.60;60.20
44433;DHT22;30136;50.600;4.608;2022-07-11T05:23:07;27.00;59.80
44433;DHT22;30136;50.600;4.608;2022-07-11T05:24:08;28.00;61.30
44433;DHT22;30136;50.600;4.608;2022-07-11T05:25:09;27.70;60.20
44433;DHT22;30136;50.600;4.608;2022-07-11T05:26:10;27.50;60.10
44433;DHT22;30136;50.600;4.608;2022-07-11T05:27:11;27.50;60.20
44433;DHT22;30136;50.600;4.608;2022-07-11T05:28:12;27.90;60.60
44433;DHT22;30136;50.600;4.608;2022-07-11T05:29:13;26.90;59.80
44433;DHT22;30136;50.600;4.608;2022-07-11T05:30:14;27.70;60.60
44433;DHT22;30136;50.600;4.608;2022-07-11T05:31:15;26.90;60.60
44433;DHT22;30136;50.600;4.608;2022-07-11T05:32:16;26.90;59.80
44433;DHT22;30136;50.600;4.608;2022-07-11T05:33:16;27.00;60.00
44433;DHT22;30136;50.600;4.608;2022-07-11T05:34:17;27.70;60.60
44433;DHT22;30136;50.600;4.608;2022-07-11T05:35:18;27.60;60.50
44433;DHT22;30136;50.600;4.608;2022-07-11T05:36:19;27.30;60.40
44433;DHT22;30136;50.600;4.608;2022-07-11T05:37:20;27.70;60.90
44433;DHT22;30136;50.600;4.608;2022-07-11T05:38:21;27.70;60.90
44433;DHT22;30136;50.600;4.608;2022-07-11T05:39:22;26.90;60.20
44433;DHT22;30136;50.600;4.608;2022-07-11T05:40:23;27.00;60.50
44433;DHT22;30136;50.600;4.608;2022-07-11T05:41:24;27.30;60.70
44433;DHT22;30136;50.600;4.608;2022-07-11T05:42:24;27.50;61.10
44433;DHT22;30136;50.600;4.608;2022-07-11T05:43:25;27.80;61.40
44433;DHT22;30136;50.600;4.608;2022-07-11T05:44:26;27.00;60.80
44433;DHT22;30136;50.600;4.608;2022-07-11T05:45:27;27.00;60.80
44433;DHT22;30136;50.600;4.608;2022-07-11T05:46:28;27.30;61.10
44433;DHT22;30136;50.600;4.608;2022-07-11T05:47:29;27.50;61.30
44433;DHT22;30136;50.600;4.608;2022-07-11T05:48:30;27.60;61.60
44433;DHT22;30136;50.600;4.608;2022-07-11T05:49:31;27.50;61.50
44433;DHT22;30136;50.600;4.608;2022-07-11T05:50:32;26.90;60.90
44433;DHT22;30136;50.600;4.608;2022-07-11T05:51:33;27.90;62.00
44433;DHT22;30136;50.600;4.608;2022-07-11T05:52:34;26.90;61.00
44433;DHT22;30136;50.600;4.608;2022-07-11T05:53:35;27.40;61.60
44433;DHT22;30136;50.600;4.608;2022-07-11T05:54:36;27.00;61.30
44433;DHT22;30136;50.600;4.608;2022-07-11T05:55:37;27.30;61.60
44433;DHT22;30136;50.600;4.608;2022-07-11T05:56:38;26.90;61.30
44433;DHT22;30136;50.600;4.608;2022-07-11T05:57:39;27.00;61.40
44433;DHT22;30136;50.600;4.608;2022-07-11T05:58:40;27.50;61.90
44433;DHT22;30136;50.600;4.608;2022-07-11T05:59:41;27.20;61.80
44433;DHT22;30136;50.600;4.608;2022-07-11T06:00:42;27.00;61.60
44433;DHT22;30136;50.600;4.608;2022-07-11T06:01:43;27.20;61.80
44433;DHT22;30136;50.600;4.608;2022-07-11T06:02:43;27.50;62.20
44433;DHT22;30136;50.600;4.608;2022-07-11T06:03:45;27.40;62.10
44433;DHT22;30136;50.600;4.608;2022-07-11T06:04:47;27.60;62.40
44433;DHT22;30136;50.600;4.608;2022-07-11T06:05:47;27.40;62.30
44433;DHT22;30136;50.600;4.608;2022-07-11T06:06:50;27.70;62.50
44433;DHT22;30136;50.600;4.608;2022-07-11T06:07:50;27.00;62.10
44433;DHT22;30136;50.600;4.608;2022-07-11T06:09:10;28.00;62.90
44433;DHT22;30136;50.600;4.608;2022-07-11T06:10:11;27.20;62.40
44433;DHT22;30136;50.600;4.608;2022-07-11T06:11:13;27.00;62.40
44433;DHT22;30136;50.600;4.608;2022-07-11T06:12:15;27.00;62.30
44433;DHT22;30136;50.600;4.608;2022-07-11T06:13:16;27.10;62.50
44433;DHT22;30136;50.600;4.608;2022-07-11T06:14:17;27.40;62.70
44433;DHT22;30136;50.600;4.608;2022-07-11T06:15:18;27.10;62.60
44433;DHT22;30136;50.600;4.608;2022-07-11T06:16:19;27.30;63.10
44433;DHT22;30136;50.600;4.608;2022-07-11T06:17:20;27.40;63.10
44433;DHT22;30136;50.600;4.608;2022-07-11T06:18:21;27.00;63.40
44433;DHT22;30136;50.600;4.608;2022-07-11T06:19:21;27.90;64.00
44433;DHT22;30136;50.600;4.608;2022-07-11T06:20:22;27.20;63.40
44433;DHT22;30136;50.600;4.608;2022-07-11T06:21:26;27.30;63.30
44433;DHT22;30136;50.600;4.608;2022-07-11T06:22:27;27.40;63.40
44433;DHT22;30136;50.600;4.608;2022-07-11T06:23:29;28.10;64.20
44433;DHT22;30136;50.600;4.608;2022-07-11T06:24:30;27.00;63.10
44433;DHT22;30136;50.600;4.608;2022-07-11T06:25:31;27.70;63.80
44433;DHT22;30136;50.600;4.608;2022-07-11T06:26:32;28.00;63.90
44433;DHT22;30136;50.600;4.608;2022-07-11T06:27:33;27.20;63.30